Terminal Aerodrome Forecast
Issued by NWS Wilmington, OH

Home | Current Version | Previous Version | Text Only | Print | Product List | Glossary On
Versions: 1 2 3 4 5 6 7 8 9 10 11 12 13 14 15 16 17 18 19 20 21 22 23 24 25 26
936
FTUS41 KILN 231734
TAFCVG
TAF
KCVG 231734Z 2318/2424 11005KT P6SM FEW100 BKN250
     FM241000 12003KT P6SM VCSH OVC080
     FM241300 14004KT P6SM -SHRA OVC040
     FM241600 16007KT 5SM -SHRA OVC025
     FM242000 21006KT P6SM VCSH BKN018=

USA.gov is the U.S. government's official web portal to all federal, state and local government web resources and services.